Time;durP1;ratioP1;P1;durP2;ratioP2;P2;SDS_P1;SDS_P2;PMS_P1;PMS_P2;Temp;Humidity;BMP_temperature;BMP_pressure;BME280_temperature;BME280_humidity;BME280_pressure;Samples;Min_cycle;Max_cycle;Signal;HPM_P1;HPM_P2
2023/08/06 00:01:44;;;;;;;32.03;6.13;;;25.60;56.40;;;;;;5025759;28;20279;-78
2023/08/06 00:04:11;;;;;;;30.50;6.20;;;25.60;56.30;;;;;;5023932;28;20207;-78
2023/08/06 00:06:38;;;;;;;29.40;6.00;;;25.60;56.30;;;;;;5006389;28;20288;-78
2023/08/06 00:09:05;;;;;;;27.20;5.77;;;25.60;56.40;;;;;;5006436;28;20281;-78
2023/08/06 00:11:32;;;;;;;36.83;6.47;;;25.60;56.30;;;;;;5015010;28;20611;-77
2023/08/06 00:13:59;;;;;;;24.93;5.60;;;25.60;56.30;;;;;;5024643;28;20216;-78
2023/08/06 00:16:26;;;;;;;24.87;5.97;;;25.50;56.30;;;;;;5024828;28;20205;-77
2023/08/06 00:18:54;;;;;;;28.70;5.83;;;25.60;56.40;;;;;;5025506;28;20284;-78
2023/08/06 00:21:21;;;;;;;42.77;6.90;;;25.60;56.40;;;;;;5024987;28;20691;-77
2023/08/06 00:23:48;;;;;;;23.03;5.37;;;25.60;56.40;;;;;;5020989;28;20211;-78
2023/08/06 00:26:15;;;;;;;31.30;6.07;;;25.60;56.40;;;;;;5025108;28;20291;-77
2023/08/06 00:28:42;;;;;;;49.33;7.57;;;25.60;56.40;;;;;;5022713;28;20236;-78
2023/08/06 00:31:09;;;;;;;55.47;7.90;;;25.50;56.30;;;;;;5023364;28;20235;-78
2023/08/06 00:33:36;;;;;;;30.03;6.17;;;25.50;56.40;;;;;;5022823;28;20212;-78
2023/08/06 00:36:04;;;;;;;31.73;6.07;;;25.50;56.30;;;;;;5025546;28;20304;-78
2023/08/06 00:38:31;;;;;;;29.73;5.73;;;25.50;56.40;;;;;;5024157;28;20205;-78
2023/08/06 00:40:58;;;;;;;29.63;5.57;;;25.50;56.40;;;;;;5023222;28;20279;-78
2023/08/06 00:43:25;;;;;;;31.00;5.77;;;25.50;56.40;;;;;;5023028;28;20196;-78
2023/08/06 00:45:53;;;;;;;26.57;5.87;;;25.50;56.40;;;;;;5037242;28;20201;-78
2023/08/06 00:48:20;;;;;;;33.50;6.47;;;25.50;56.40;;;;;;5024326;28;20653;-79
2023/08/06 00:50:47;;;;;;;36.70;6.57;;;25.50;56.40;;;;;;5023182;28;20209;-80
2023/08/06 00:53:15;;;;;;;32.87;5.90;;;25.50;56.40;;;;;;5023487;28;20292;-79
2023/08/06 00:55:45;;;;;;;25.50;5.93;;;25.50;56.40;;;;;;5022186;28;20225;-80
2023/08/06 00:58:13;;;;;;;34.00;6.60;;;25.50;56.40;;;;;;5024063;28;20284;-79
2023/08/06 01:00:40;;;;;;;31.33;6.03;;;25.50;56.40;;;;;;5021563;28;20291;-78
2023/08/06 01:03:07;;;;;;;33.13;5.97;;;25.50;56.40;;;;;;5023053;28;20233;-78
2023/08/06 01:05:34;;;;;;;29.60;5.87;;;25.50;56.40;;;;;;5024579;28;20311;-79
2023/08/06 01:08:15;;;;;;;23.83;5.07;;;25.50;56.40;;;;;;5025030;28;20248;-79
2023/08/06 01:10:51;;;;;;;23.43;5.30;;;25.50;56.40;;;;;;5006837;28;20552;-79
2023/08/06 01:13:28;;;;;;;35.83;6.27;;;25.50;56.40;;;;;;5021253;28;20243;-79
2023/08/06 01:15:58;;;;;;;27.43;5.63;;;25.40;56.40;;;;;;5023975;28;20311;-79
2023/08/06 01:18:24;;;;;;;48.60;7.60;;;25.50;57.00;;;;;;5023761;28;20857;-79
2023/08/06 01:20:53;;;;;;;27.07;5.87;;;25.50;56.40;;;;;;5023290;28;20287;-78
2023/08/06 01:23:21;;;;;;;42.53;6.80;;;25.50;56.50;;;;;;5021427;28;20707;-79
2023/08/06 01:25:57;;;;;;;26.90;5.47;;;25.50;56.50;;;;;;5021762;28;20240;-79
2023/08/06 01:28:31;;;;;;;36.17;6.30;;;25.50;57.10;;;;;;5025438;28;20288;-79
2023/08/06 01:31:02;;;;;;;29.80;5.33;;;25.50;56.50;;;;;;5025534;28;20284;-78
2023/08/06 01:33:35;;;;;;;65.33;9.07;;;25.50;56.50;;;;;;5023388;28;20289;-79
2023/08/06 01:36:06;;;;;;;24.23;5.20;;;25.40;56.40;;;;;;5018199;28;20232;-79
2023/08/06 01:38:34;;;;;;;47.50;7.07;;;25.40;56.40;;;;;;5024599;28;20205;-79
2023/08/06 01:41:01;;;;;;;35.17;5.97;;;25.40;56.40;;;;;;5022525;28;20297;-79
2023/08/06 01:43:28;;;;;;;53.27;7.77;;;25.40;56.50;;;;;;5021081;28;20292;-79
2023/08/06 01:45:55;;;;;;;25.07;5.20;;;25.40;56.50;;;;;;5030587;28;20197;-78
2023/08/06 01:48:22;;;;;;;27.30;5.70;;;25.40;56.50;;;;;;5026953;28;20715;-78
2023/08/06 01:50:48;;;;;;;42.70;7.17;;;25.40;56.50;;;;;;5025376;28;20212;-79
2023/08/06 01:53:17;;;;;;;32.40;5.97;;;25.40;56.50;;;;;;5026463;28;20308;-79
2023/08/06 01:55:49;;;;;;;43.87;6.90;;;25.40;56.50;;;;;;5026203;28;20502;-79
2023/08/06 01:58:15;;;;;;;24.63;5.47;;;25.40;56.60;;;;;;5027168;28;20192;-81
2023/08/06 02:00:43;;;;;;;25.80;5.33;;;25.40;56.50;;;;;;5025661;28;20284;-80
2023/08/06 02:03:10;;;;;;;25.77;5.13;;;25.40;56.60;;;;;;5027466;28;20201;-80
2023/08/06 02:05:37;;;;;;;47.07;6.93;;;25.40;56.60;;;;;;5025012;28;20699;-80
2023/08/06 02:08:04;;;;;;;21.13;4.77;;;25.40;56.60;;;;;;5027596;28;20239;-80
2023/08/06 02:10:32;;;;;;;43.53;7.47;;;25.40;56.60;;;;;;5027212;28;20570;-81
2023/08/06 02:12:59;;;;;;;23.63;5.10;;;25.40;56.60;;;;;;5026348;28;20204;-79
2023/08/06 02:15:26;;;;;;;25.73;5.33;;;25.40;56.60;;;;;;5028157;28;20224;-79
2023/08/06 02:17:53;;;;;;;27.10;5.47;;;25.40;56.60;;;;;;5026172;28;20347;-78
2023/08/06 02:20:20;;;;;;;25.67;5.47;;;25.40;56.60;;;;;;5025810;28;20292;-79
2023/08/06 02:22:46;;;;;;;79.63;10.07;;;25.40;57.20;;;;;;5024017;28;20288;-79
2023/08/06 02:25:14;;;;;;;36.80;6.53;;;25.40;56.60;;;;;;5024285;28;20203;-79
2023/08/06 02:27:42;;;;;;;30.70;6.17;;;25.40;56.60;;;;;;5025185;28;20223;-79
2023/08/06 02:30:09;;;;;;;29.43;5.93;;;25.40;56.70;;;;;;5026545;28;20240;-79
2023/08/06 02:32:36;;;;;;;32.50;6.17;;;25.40;56.60;;;;;;5026557;28;20296;-80
2023/08/06 02:35:03;;;;;;;35.43;6.30;;;25.40;56.70;;;;;;5026501;28;20340;-78
2023/08/06 02:37:30;;;;;;;37.60;6.10;;;25.40;56.70;;;;;;5026423;28;20197;-80
2023/08/06 02:39:57;;;;;;;30.70;6.00;;;25.40;56.70;;;;;;5026324;28;20308;-79
2023/08/06 02:42:25;;;;;;;23.93;5.07;;;25.40;56.70;;;;;;5025729;28;20287;-78
2023/08/06 02:44:54;;;;;;;41.83;7.10;;;25.40;56.70;;;;;;5022008;27;20209;-79
2023/08/06 02:47:21;;;;;;;36.73;6.57;;;25.40;56.70;;;;;;5025090;28;20655;-79
2023/08/06 02:49:49;;;;;;;50.73;7.93;;;25.40;56.70;;;;;;5033464;28;20286;-79
2023/08/06 02:52:16;;;;;;;33.70;5.83;;;25.40;56.70;;;;;;5026201;28;20217;-78
2023/08/06 02:54:43;;;;;;;47.37;7.23;;;25.40;56.70;;;;;;5025689;28;20220;-78
2023/08/06 02:57:11;;;;;;;26.63;5.57;;;25.40;56.70;;;;;;5024142;28;20197;-78
2023/08/06 02:59:38;;;;;;;22.13;4.93;;;25.40;56.70;;;;;;5025974;28;20237;-78
2023/08/06 03:02:07;;;;;;;36.33;6.07;;;25.40;56.80;;;;;;5025391;28;20283;-79
2023/08/06 03:04:34;;;;;;;44.93;7.10;;;25.40;56.80;;;;;;5026006;28;20209;-78
2023/08/06 03:07:01;;;;;;;45.63;7.07;;;25.40;56.70;;;;;;5024305;28;20208;-78
2023/08/06 03:09:28;;;;;;;23.97;5.47;;;25.40;56.80;;;;;;5007444;28;20273;-79
2023/08/06 03:11:55;;;;;;;32.27;5.93;;;25.40;56.80;;;;;;5025217;28;20312;-77
2023/08/06 03:14:21;;;;;;;24.23;5.27;;;25.40;56.90;;;;;;5025433;28;20293;-79
2023/08/06 03:16:48;;;;;;;60.90;8.40;;;25.30;56.80;;;;;;5022725;28;20339;-78
2023/08/06 03:19:17;;;;;;;31.43;6.23;;;25.30;56.80;;;;;;5028273;28;20292;-78
2023/08/06 03:21:44;;;;;;;29.57;5.97;;;25.30;56.80;;;;;;5025811;28;20320;-78
2023/08/06 03:24:11;;;;;;;39.63;6.37;;;25.30;56.80;;;;;;5025840;28;20215;-78
2023/08/06 03:26:37;;;;;;;32.13;6.03;;;25.30;56.80;;;;;;5014915;28;20239;-78
2023/08/06 03:29:04;;;;;;;47.97;7.47;;;25.30;56.80;;;;;;5024736;28;20254;-77
2023/08/06 03:31:31;;;;;;;25.93;5.53;;;25.30;56.80;;;;;;5026956;28;20193;-77
2023/08/06 03:33:58;;;;;;;27.50;5.80;;;25.30;56.80;;;;;;5024841;28;20249;-77
2023/08/06 03:36:27;;;;;;;31.70;6.23;;;25.40;56.90;;;;;;5020437;28;20288;-77
2023/08/06 03:38:53;;;;;;;23.83;5.43;;;25.30;56.80;;;;;;5034138;28;20258;-77
2023/08/06 03:41:20;;;;;;;22.37;5.30;;;25.30;56.80;;;;;;5017309;28;20263;-77
2023/08/06 03:43:47;;;;;;;25.37;5.43;;;25.30;56.90;;;;;;5017996;28;20244;-77
2023/08/06 03:46:14;;;;;;;24.10;5.17;;;25.30;56.90;;;;;;5025312;28;20283;-78
2023/08/06 03:48:41;;;;;;;24.70;5.07;;;25.30;56.90;;;;;;5023316;28;20287;-77
2023/08/06 03:51:08;;;;;;;27.10;5.67;;;25.30;56.80;;;;;;5024714;28;20295;-77
2023/08/06 03:53:36;;;;;;;23.17;5.47;;;25.30;56.90;;;;;;5025448;28;20300;-78
2023/08/06 03:56:04;;;;;;;32.80;6.27;;;25.30;56.90;;;;;;5031389;28;20221;-78
2023/08/06 03:58:31;;;;;;;39.70;6.70;;;25.30;56.90;;;;;;5023571;28;20225;-78
2023/08/06 04:01:01;;;;;;;24.37;5.13;;;25.30;56.80;;;;;;5019562;28;20202;-78
2023/08/06 04:03:28;;;;;;;39.10;6.47;;;25.30;56.90;;;;;;5010107;28;20279;-78
2023/08/06 04:05:55;;;;;;;23.57;5.43;;;25.30;56.90;;;;;;5025223;28;20277;-78
2023/08/06 04:08:22;;;;;;;27.17;5.60;;;25.30;56.90;;;;;;5025454;28;20205;-76
2023/08/06 04:10:53;;;;;;;43.63;6.87;;;25.20;56.80;;;;;;5022063;28;20281;-79
2023/08/06 04:13:20;;;;;;;41.83;6.97;;;25.30;56.90;;;;;;5039531;28;20307;-78
2023/08/06 04:15:48;;;;;;;22.70;5.13;;;25.20;56.80;;;;;;5012620;27;20279;-76
2023/08/06 04:18:15;;;;;;;23.20;5.43;;;25.30;56.90;;;;;;5025581;28;20755;-79
2023/08/06 04:20:45;;;;;;;32.80;6.07;;;25.20;56.80;;;;;;5025638;28;20200;-79
2023/08/06 04:23:12;;;;;;;42.33;6.77;;;25.20;56.80;;;;;;5022300;28;20208;-76
2023/08/06 04:25:39;;;;;;;41.10;6.73;;;25.20;56.80;;;;;;5024518;28;20220;-76
2023/08/06 04:28:08;;;;;;;34.77;6.13;;;25.20;56.80;;;;;;5019924;28;20303;-78
2023/08/06 04:30:35;;;;;;;25.13;5.53;;;25.20;56.80;;;;;;5028994;28;20280;-77
2023/08/06 04:33:02;;;;;;;21.87;4.97;;;25.20;56.80;;;;;;5024351;28;20293;-77
2023/08/06 04:35:29;;;;;;;35.43;6.37;;;25.20;56.80;;;;;;5017960;28;20221;-78
2023/08/06 04:37:56;;;;;;;24.80;5.27;;;25.20;56.80;;;;;;5022439;27;20311;-79
2023/08/06 04:40:23;;;;;;;36.90;6.20;;;25.20;56.80;;;;;;5024727;28;20204;-76
2023/08/06 04:42:50;;;;;;;22.80;5.33;;;25.20;56.80;;;;;;5024504;28;20293;-78
2023/08/06 04:45:18;;;;;;;26.70;5.20;;;25.20;56.80;;;;;;5025691;28;20205;-78
2023/08/06 04:47:45;;;;;;;43.38;7.30;;;25.20;56.80;;;;;;5020535;28;20447;-79
2023/08/06 04:50:12;;;;;;;27.23;5.43;;;25.10;57.40;;;;;;5024434;28;20313;-78
2023/08/06 04:52:39;;;;;;;29.27;6.00;;;25.10;57.30;;;;;;5023738;28;20291;-79
2023/08/06 04:55:06;;;;;;;19.53;4.83;;;25.10;57.10;;;;;;5023090;28;20203;-79
2023/08/06 04:57:33;;;;;;;49.20;7.33;;;25.20;57.00;;;;;;5023689;28;20200;-78
2023/08/06 05:00:00;;;;;;;27.77;5.23;;;25.20;57.00;;;;;;5017766;28;20293;-79
2023/08/06 05:02:28;;;;;;;26.70;5.47;;;25.20;56.90;;;;;;5030421;28;20684;-79
2023/08/06 05:04:56;;;;;;;26.50;5.57;;;25.20;56.80;;;;;;5032759;28;20236;-79
2023/08/06 05:07:23;;;;;;;20.30;4.80;;;25.20;56.80;;;;;;5029792;28;20288;-78
2023/08/06 05:09:50;;;;;;;21.90;5.13;;;25.20;56.80;;;;;;5030196;28;20207;-78
2023/08/06 05:12:17;;;;;;;30.20;5.70;;;25.20;56.80;;;;;;5023210;28;20201;-79
2023/08/06 05:14:43;;;;;;;25.57;5.43;;;25.20;56.80;;;;;;5020777;28;20201;-76
2023/08/06 05:17:10;;;;;;;34.30;6.07;;;25.20;56.80;;;;;;5021371;28;20308;-76
2023/08/06 05:19:39;;;;;;;24.60;5.37;;;25.20;56.80;;;;;;5022146;28;20303;-76
2023/08/06 05:22:06;;;;;;;18.60;4.70;;;25.20;57.40;;;;;;5024904;28;20207;-76
2023/08/06 05:24:33;;;;;;;42.00;7.00;;;25.20;56.80;;;;;;5023052;28;20204;-76
2023/08/06 05:27:00;;;;;;;19.93;5.07;;;25.20;56.80;;;;;;5025237;28;20205;-76
2023/08/06 05:29:27;;;;;;;26.47;5.83;;;25.20;56.80;;;;;;5024011;28;20204;-76
2023/08/06 05:31:54;;;;;;;31.20;6.37;;;25.20;56.80;;;;;;5021541;28;20209;-76
2023/08/06 05:34:21;;;;;;;27.50;5.53;;;25.10;56.80;;;;;;5022982;28;20224;-76
2023/08/06 05:36:50;;;;;;;25.00;5.63;;;25.10;56.80;;;;;;5024467;28;20319;-76
2023/08/06 05:39:17;;;;;;;24.87;5.70;;;25.10;56.80;;;;;;5024018;28;20200;-76
2023/08/06 05:41:44;;;;;;;23.17;5.03;;;25.10;56.80;;;;;;5023973;28;20201;-75
2023/08/06 05:44:10;;;;;;;24.87;5.30;;;25.10;56.80;;;;;;5023941;28;20287;-76
2023/08/06 05:46:37;;;;;;;38.47;6.33;;;25.10;56.90;;;;;;5021019;28;20321;-75
2023/08/06 05:49:05;;;;;;;19.47;4.97;;;25.10;56.90;;;;;;5011609;28;20212;-76
2023/08/06 05:51:32;;;;;;;47.57;7.27;;;25.10;56.90;;;;;;5020104;28;20213;-76
2023/08/06 05:54:00;;;;;;;27.90;5.80;;;25.10;56.90;;;;;;5023314;28;20201;-76
2023/08/06 05:56:27;;;;;;;32.43;5.93;;;25.10;56.90;;;;;;5023474;28;20243;-76
2023/08/06 05:58:54;;;;;;;27.83;5.63;;;25.10;56.90;;;;;;5023345;28;20292;-76
2023/08/06 06:01:21;;;;;;;27.70;5.63;;;25.10;56.90;;;;;;5022714;28;20209;-76
2023/08/06 06:03:48;;;;;;;44.67;7.13;;;25.10;56.90;;;;;;5022529;28;20220;-76
2023/08/06 06:06:16;;;;;;;23.53;5.37;;;25.10;56.90;;;;;;5023577;28;20204;-76
2023/08/06 06:08:42;;;;;;;20.23;4.50;;;25.10;57.00;;;;;;5022789;28;20303;-76
2023/08/06 06:11:11;;;;;;;27.13;5.77;;;25.10;57.00;;;;;;5021165;28;20204;-76
2023/08/06 06:13:38;;;;;;;24.30;5.07;;;25.10;56.90;;;;;;5011461;28;20690;-76
2023/08/06 06:16:05;;;;;;;24.87;5.10;;;25.10;56.90;;;;;;5006924;28;20224;-76
2023/08/06 06:18:32;;;;;;;26.73;5.57;;;25.10;56.90;;;;;;5022623;28;20294;-76
2023/08/06 06:20:59;;;;;;;28.57;5.83;;;25.10;56.90;;;;;;5024301;28;20292;-76
2023/08/06 06:23:26;;;;;;;22.27;4.97;;;25.10;56.90;;;;;;5024491;28;20270;-76
2023/08/06 06:25:53;;;;;;;25.13;5.30;;;25.10;57.00;;;;;;5023329;28;20201;-76
2023/08/06 06:28:21;;;;;;;40.47;6.57;;;25.10;57.00;;;;;;5022815;28;20193;-77
2023/08/06 06:30:49;;;;;;;29.03;5.63;;;25.10;57.00;;;;;;5022872;28;20205;-77
2023/08/06 06:33:16;;;;;;;31.47;5.73;;;25.10;57.00;;;;;;5025013;28;20206;-77
2023/08/06 06:35:46;;;;;;;50.03;7.50;;;25.10;57.00;;;;;;5031450;28;20288;-77
2023/08/06 06:38:13;;;;;;;25.97;5.13;;;25.10;57.00;;;;;;5011699;28;20279;-76
2023/08/06 06:40:40;;;;;;;21.77;5.07;;;25.10;57.00;;;;;;5025685;28;20293;-76
2023/08/06 06:43:07;;;;;;;32.07;5.97;;;25.10;57.00;;;;;;5027582;28;20284;-76
2023/08/06 06:45:35;;;;;;;62.83;8.57;;;25.10;57.10;;;;;;5024875;28;20626;-76
2023/08/06 06:48:02;;;;;;;34.83;6.20;;;25.10;57.00;;;;;;5028567;28;20205;-76
2023/08/06 06:50:29;;;;;;;56.37;8.30;;;25.10;57.00;;;;;;5025035;28;20189;-76
2023/08/06 06:52:56;;;;;;;34.10;5.90;;;25.10;57.00;;;;;;5024124;28;20296;-76
2023/08/06 06:55:23;;;;;;;26.63;5.27;;;25.10;57.10;;;;;;5025739;28;20203;-76
2023/08/06 06:57:50;;;;;;;25.33;5.23;;;25.10;57.00;;;;;;5022087;28;20213;-76
2023/08/06 07:00:17;;;;;;;25.20;5.30;;;25.10;57.10;;;;;;5011081;28;20288;-75
2023/08/06 07:02:45;;;;;;;18.93;4.70;;;25.10;57.10;;;;;;5024124;28;20283;-76
2023/08/06 07:05:12;;;;;;;29.13;5.60;;;25.10;57.10;;;;;;5025838;28;20287;-76
2023/08/06 07:07:39;;;;;;;23.23;5.27;;;25.10;57.10;;;;;;5026734;28;20288;-76
2023/08/06 07:10:07;;;;;;;28.50;5.27;;;25.10;57.10;;;;;;5025859;28;20216;-76
2023/08/06 07:12:34;;;;;;;41.17;6.83;;;25.10;57.10;;;;;;5024429;28;20269;-76
2023/08/06 07:15:01;;;;;;;23.30;4.87;;;25.10;57.70;;;;;;5027165;28;20293;-76
2023/08/06 07:17:28;;;;;;;26.83;5.20;;;25.10;57.10;;;;;;5026876;27;20232;-77
2023/08/06 07:19:56;;;;;;;27.97;5.57;;;25.10;57.20;;;;;;5032520;28;20193;-76
2023/08/06 07:22:23;;;;;;;30.50;5.47;;;25.10;57.10;;;;;;5025476;28;20293;-76
2023/08/06 07:24:50;;;;;;;65.47;8.87;;;25.10;57.10;;;;;;5024534;28;20287;-76
2023/08/06 07:27:17;;;;;;;45.43;7.27;;;25.00;57.10;;;;;;5024830;28;20830;-76
2023/08/06 07:29:44;;;;;;;26.90;5.03;;;25.10;57.10;;;;;;5024487;28;20240;-76
2023/08/06 07:32:11;;;;;;;25.07;5.40;;;25.10;57.20;;;;;;5026913;28;20216;-76
2023/08/06 07:34:38;;;;;;;30.43;5.90;;;25.10;57.10;;;;;;5025855;28;20308;-77
2023/08/06 07:37:07;;;;;;;23.13;5.20;;;25.00;57.10;;;;;;5023544;28;20219;-77
2023/08/06 07:39:33;;;;;;;35.23;6.27;;;25.10;57.20;;;;;;5024116;28;20612;-77
2023/08/06 07:42:02;;;;;;;23.07;5.10;;;25.10;57.10;;;;;;5025260;28;20375;-77
2023/08/06 07:44:29;;;;;;;39.00;6.33;;;25.10;57.10;;;;;;5021782;28;20246;-77
2023/08/06 07:46:56;;;;;;;28.47;5.53;;;25.10;57.10;;;;;;5016748;28;20296;-77
2023/08/06 07:49:23;;;;;;;26.07;5.23;;;25.00;57.10;;;;;;5023405;28;20283;-77
2023/08/06 07:51:51;;;;;;;31.03;5.80;;;25.10;57.20;;;;;;5023834;28;20208;-76
2023/08/06 07:54:20;;;;;;;31.97;6.00;;;25.10;57.10;;;;;;5026209;28;20502;-76
2023/08/06 07:56:46;;;;;;;58.97;8.13;;;25.10;57.10;;;;;;5023873;28;20232;-76
2023/08/06 07:59:13;;;;;;;23.27;5.20;;;25.00;57.10;;;;;;5026341;28;20204;-77
2023/08/06 08:01:40;;;;;;;18.80;4.70;;;25.10;57.20;;;;;;5024804;28;20240;-77
2023/08/06 08:04:09;;;;;;;28.63;5.47;;;25.00;57.10;;;;;;5026680;28;20291;-75
2023/08/06 08:06:39;;;;;;;33.20;5.67;;;25.00;57.10;;;;;;5024994;28;20212;-76
2023/08/06 08:09:06;;;;;;;19.90;4.77;;;25.10;57.20;;;;;;5022871;28;20561;-77
2023/08/06 08:11:35;;;;;;;24.40;5.10;;;25.10;57.20;;;;;;5025552;27;20291;-76
2023/08/06 08:14:02;;;;;;;26.43;5.23;;;25.00;57.10;;;;;;5029897;28;20319;-76
2023/08/06 08:16:29;;;;;;;26.30;5.63;;;25.00;57.10;;;;;;5022384;28;20337;-76
2023/08/06 08:18:56;;;;;;;27.60;5.47;;;25.00;57.10;;;;;;5025173;28;20279;-76
2023/08/06 08:21:24;;;;;;;27.23;5.57;;;25.10;57.20;;;;;;5026107;28;20280;-76
2023/08/06 08:23:51;;;;;;;40.37;6.73;;;25.10;57.20;;;;;;5024528;28;20211;-76
2023/08/06 08:26:18;;;;;;;19.07;4.63;;;25.10;57.20;;;;;;5025732;28;20289;-76
2023/08/06 08:28:46;;;;;;;23.13;5.33;;;25.10;57.20;;;;;;5025773;28;20280;-76
2023/08/06 08:31:13;;;;;;;20.77;5.17;;;25.10;57.20;;;;;;5024534;28;20237;-76
2023/08/06 08:33:40;;;;;;;20.47;5.00;;;25.10;57.20;;;;;;5024662;28;20228;-76
2023/08/06 08:36:07;;;;;;;41.60;6.60;;;25.10;57.20;;;;;;5024609;28;20265;-76
2023/08/06 08:38:34;;;;;;;30.57;6.00;;;25.00;57.10;;;;;;5023900;28;20292;-76
2023/08/06 08:41:01;;;;;;;36.60;6.37;;;25.10;57.20;;;;;;5022739;28;20287;-76
2023/08/06 08:43:29;;;;;;;85.17;10.57;;;25.10;57.80;;;;;;5023116;28;20251;-76
2023/08/06 08:45:59;;;;;;;31.23;5.90;;;25.10;57.20;;;;;;5025609;28;20284;-76
2023/08/06 08:48:27;;;;;;;34.20;6.40;;;25.10;57.80;;;;;;5023218;28;20216;-76
2023/08/06 08:50:54;;;;;;;16.37;4.47;;;25.10;57.20;;;;;;5023906;28;20208;-76
2023/08/06 08:53:22;;;;;;;44.57;6.83;;;25.10;57.20;;;;;;5022714;28;20322;-76
2023/08/06 08:55:50;;;;;;;27.73;5.10;;;25.10;57.20;;;;;;5023643;28;20212;-77
2023/08/06 08:58:17;;;;;;;33.57;6.13;;;25.10;57.30;;;;;;5024555;28;20213;-76
2023/08/06 09:00:48;;;;;;;31.27;5.83;;;25.10;57.30;;;;;;5020085;28;20291;-76
2023/08/06 09:03:18;;;;;;;25.60;5.27;;;25.10;57.20;;;;;;5028099;28;20216;-77
2023/08/06 09:05:45;;;;;;;26.87;5.60;;;25.10;57.30;;;;;;5024814;28;20200;-76
2023/08/06 09:08:17;;;;;;;27.10;5.37;;;25.10;57.30;;;;;;5024985;28;20620;-76
2023/08/06 09:10:44;;;;;;;26.10;5.37;;;25.10;57.30;;;;;;5023315;28;20208;-76
2023/08/06 09:13:12;;;;;;;19.80;4.67;;;25.10;57.30;;;;;;5024820;28;20200;-76
2023/08/06 09:15:39;;;;;;;21.63;5.07;;;25.10;57.30;;;;;;5014790;28;20216;-76
2023/08/06 09:18:11;;;;;;;29.73;5.80;;;25.10;57.30;;;;;;5021395;28;21009;-76
2023/08/06 09:20:40;;;;;;;36.77;6.07;;;25.10;57.30;;;;;;5023372;28;20691;-80
2023/08/06 09:23:10;;;;;;;25.23;5.20;;;25.10;57.30;;;;;;5017287;28;20205;-77
2023/08/06 09:25:40;;;;;;;23.93;5.00;;;25.10;57.30;;;;;;5023441;28;20221;-74
2023/08/06 09:28:07;;;;;;;36.63;6.53;;;25.10;57.30;;;;;;5021706;28;20234;-75
2023/08/06 09:30:36;;;;;;;27.37;5.60;;;25.10;57.30;;;;;;5021633;28;20233;-75
2023/08/06 09:33:04;;;;;;;37.03;6.20;;;25.10;57.30;;;;;;5024074;28;20221;-75
2023/08/06 09:35:32;;;;;;;29.67;5.97;;;25.10;57.30;;;;;;5021981;28;20283;-74
2023/08/06 09:38:08;;;;;;;27.50;5.50;;;25.10;57.30;;;;;;5024872;28;20242;-75
2023/08/06 09:40:35;;;;;;;19.60;4.67;;;25.20;57.50;;;;;;5023187;28;20241;-74
2023/08/06 09:43:02;;;;;;;26.97;5.37;;;25.20;57.40;;;;;;5024071;28;20657;-75
2023/08/06 09:45:32;;;;;;;19.13;4.87;;;25.10;57.40;;;;;;5021756;28;20236;-75
2023/08/06 09:48:00;;;;;;;30.80;5.80;;;25.20;57.40;;;;;;5022746;28;20200;-75
2023/08/06 09:50:31;;;;;;;21.90;5.13;;;25.20;57.40;;;;;;5023416;28;20211;-74
2023/08/06 09:52:59;;;;;;;43.60;6.97;;;25.20;57.40;;;;;;5024122;28;20211;-74
2023/08/06 09:55:28;;;;;;;22.30;5.23;;;25.30;57.50;;;;;;5023477;28;20205;-74
2023/08/06 09:57:56;;;;;;;45.93;6.73;;;25.20;57.40;;;;;;5023733;28;20707;-74
2023/08/06 10:00:24;;;;;;;25.90;5.53;;;25.30;57.50;;;;;;5022137;28;20224;-75
2023/08/06 10:02:54;;;;;;;26.03;5.33;;;25.30;58.10;;;;;;5024068;28;20205;-74
2023/08/06 10:05:22;;;;;;;25.77;5.30;;;25.30;57.50;;;;;;5025580;28;20205;-75
2023/08/06 10:07:50;;;;;;;22.87;5.27;;;25.30;57.50;;;;;;5008256;28;20558;-74
2023/08/06 10:10:19;;;;;;;31.00;5.60;;;25.40;57.50;;;;;;5019645;28;20289;-76
2023/08/06 10:12:51;;;;;;;22.63;5.40;;;25.40;57.50;;;;;;5028067;28;20197;-75
2023/08/06 10:15:21;;;;;;;33.97;5.90;;;25.40;57.40;;;;;;5027056;28;20671;-74
2023/08/06 10:17:51;;;;;;;39.57;6.40;;;25.40;57.40;;;;;;5019643;28;20265;-74
2023/08/06 10:20:20;;;;;;;37.80;6.30;;;25.40;57.40;;;;;;5024820;28;20590;-75
2023/08/06 10:23:00;;;;;;;24.60;5.33;;;25.40;57.40;;;;;;5026608;28;20197;-75
2023/08/06 10:25:27;;;;;;;24.83;5.27;;;25.50;57.40;;;;;;5026756;28;20659;-75
2023/08/06 10:27:56;;;;;;;30.53;5.90;;;25.40;57.30;;;;;;5025432;28;20671;-75
2023/08/06 10:30:24;;;;;;;40.47;6.17;;;25.50;57.40;;;;;;5011945;28;20208;-75
2023/08/06 10:32:53;;;;;;;41.17;6.83;;;25.50;57.40;;;;;;5025169;28;20833;-75
2023/08/06 10:35:31;;;;;;;32.90;5.80;;;25.40;57.30;;;;;;5023877;28;20201;-75
2023/08/06 10:38:05;;;;;;;36.53;6.43;;;25.50;57.40;;;;;;5026819;28;20220;-74
2023/08/06 10:40:32;;;;;;;32.87;5.93;;;25.50;57.40;;;;;;5026827;28;20624;-75
2023/08/06 10:43:06;;;;;;;28.30;5.63;;;25.50;57.30;;;;;;5026882;28;20287;-74
2023/08/06 10:45:36;;;;;;;35.63;6.60;;;25.50;57.30;;;;;;5025145;28;20211;-75
2023/08/06 10:48:03;;;;;;;43.83;6.87;;;25.50;57.30;;;;;;5026809;28;20272;-75
2023/08/06 10:50:31;;;;;;;34.67;6.60;;;25.50;57.30;;;;;;5026270;28;20286;-75
2023/08/06 10:52:58;;;;;;;31.23;5.70;;;25.50;57.30;;;;;;5024430;28;20296;-74
2023/08/06 10:55:26;;;;;;;30.53;6.07;;;25.50;57.30;;;;;;5027637;28;20215;-74
2023/08/06 10:57:54;;;;;;;24.53;5.07;;;25.60;57.30;;;;;;5020901;28;20225;-74
2023/08/06 11:00:24;;;;;;;32.37;6.17;;;25.50;57.30;;;;;;5027595;28;20256;-74
2023/08/06 11:02:54;;;;;;;25.67;5.30;;;25.60;57.30;;;;;;5015989;28;20210;-74
2023/08/06 11:05:21;;;;;;;21.73;4.83;;;25.60;57.30;;;;;;5017936;28;20211;-75
2023/08/06 11:07:49;;;;;;;25.97;5.17;;;25.60;57.30;;;;;;5026133;28;20225;-74
2023/08/06 11:10:16;;;;;;;24.67;5.37;;;25.60;57.30;;;;;;5025303;28;20205;-75
2023/08/06 11:12:43;;;;;;;31.13;6.13;;;25.60;57.30;;;;;;5025994;28;20731;-74
2023/08/06 11:15:11;;;;;;;23.07;5.00;;;25.60;57.30;;;;;;5015877;28;20201;-74
2023/08/06 11:17:42;;;;;;;31.33;6.07;;;25.60;57.30;;;;;;5025743;28;20235;-74
2023/08/06 11:20:09;;;;;;;24.30;5.13;;;25.60;57.30;;;;;;5023468;28;20201;-73
2023/08/06 11:22:38;;;;;;;53.27;7.57;;;25.60;57.30;;;;;;5022971;28;20232;-75
2023/08/06 11:25:06;;;;;;;26.23;5.00;;;25.60;57.30;;;;;;5023868;28;20227;-74
2023/08/06 11:27:33;;;;;;;36.87;6.13;;;25.60;57.30;;;;;;5016112;28;20201;-75
2023/08/06 11:30:01;;;;;;;47.60;7.60;;;25.70;57.40;;;;;;5023931;28;20673;-76
2023/08/06 11:32:28;;;;;;;29.20;5.90;;;25.70;57.30;;;;;;5024061;28;20586;-75
2023/08/06 11:34:57;;;;;;;27.57;5.93;;;25.70;57.30;;;;;;5024380;28;20632;-75
2023/08/06 11:37:25;;;;;;;31.20;5.57;;;25.70;57.30;;;;;;5009107;28;20209;-75
2023/08/06 11:39:52;;;;;;;21.57;5.00;;;25.70;57.30;;;;;;5025783;28;20261;-74
2023/08/06 11:42:20;;;;;;;20.00;4.97;;;25.70;57.30;;;;;;5025568;28;20319;-75
2023/08/06 11:44:47;;;;;;;24.10;5.53;;;25.70;57.30;;;;;;5018286;28;20660;-72
2023/08/06 11:47:16;;;;;;;23.17;5.00;;;25.70;57.30;;;;;;5025517;28;20254;-74
2023/08/06 11:49:47;;;;;;;24.80;5.03;;;25.70;57.30;;;;;;5025758;28;20285;-76
2023/08/06 11:52:22;;;;;;;28.73;5.87;;;25.70;57.30;;;;;;5025152;27;20216;-73
2023/08/06 11:55:02;;;;;;;45.87;6.80;;;25.70;57.30;;;;;;5024922;28;20203;-73
2023/08/06 11:57:32;;;;;;;25.73;5.37;;;25.70;57.30;;;;;;5024505;28;20200;-73
2023/08/06 12:00:02;;;;;;;24.80;5.03;;;25.70;57.30;;;;;;5029754;27;20220;-74
2023/08/06 12:02:34;;;;;;;34.57;6.00;;;25.70;57.20;;;;;;5029868;28;20201;-73
2023/08/06 12:05:05;;;;;;;31.30;5.67;;;25.70;57.20;;;;;;5023314;28;20212;-75
2023/08/06 12:07:39;;;;;;;45.87;7.23;;;25.70;57.30;;;;;;5025808;28;20723;-74
2023/08/06 12:10:07;;;;;;;26.40;5.73;;;25.80;57.20;;;;;;5024143;28;20254;-74
2023/08/06 12:12:34;;;;;;;28.60;5.77;;;25.80;57.20;;;;;;5024539;28;20675;-73
2023/08/06 12:15:01;;;;;;;24.97;5.40;;;25.70;57.20;;;;;;5025547;28;20196;-73
2023/08/06 12:17:28;;;;;;;30.73;5.43;;;25.80;57.20;;;;;;5024500;28;20233;-73
2023/08/06 12:19:55;;;;;;;35.23;6.27;;;25.70;57.20;;;;;;5025815;28;20240;-73
2023/08/06 12:22:22;;;;;;;23.20;5.03;;;25.70;57.20;;;;;;5025693;28;20207;-74
2023/08/06 12:24:50;;;;;;;32.00;6.03;;;25.70;57.20;;;;;;5024522;28;20209;-74
2023/08/06 12:27:17;;;;;;;56.67;8.23;;;25.70;57.10;;;;;;5023972;28;20233;-72
2023/08/06 12:29:45;;;;;;;25.63;5.17;;;25.80;57.20;;;;;;5024096;28;20200;-73
2023/08/06 12:32:13;;;;;;;31.37;5.87;;;25.80;57.20;;;;;;5025705;28;20308;-73
2023/08/06 12:34:40;;;;;;;30.03;5.83;;;25.70;57.10;;;;;;5024157;28;20205;-73
2023/08/06 12:37:08;;;;;;;32.73;6.27;;;25.70;57.10;;;;;;5022435;28;20201;-73
2023/08/06 12:39:35;;;;;;;49.20;7.30;;;25.70;57.10;;;;;;5039485;28;20220;-73